sensor_id;sensor_type;location;lat;lon;timestamp;pressure;altitude;pressure_sealevel;temperature;humidity
41596;BME280;27283;52.504;13.358;2022-11-12T00:01:50;102784.69;;;8.41;80.38
41596;BME280;27283;52.504;13.358;2022-11-12T00:04:23;102783.72;;;8.42;80.41
41596;BME280;27283;52.504;13.358;2022-11-12T00:06:55;102788.34;;;8.40;80.30
41596;BME280;27283;52.504;13.358;2022-11-12T00:09:27;102792.06;;;8.38;79.83
41596;BME280;27283;52.504;13.358;2022-11-12T00:11:59;102792.63;;;8.43;79.90
41596;BME280;27283;52.504;13.358;2022-11-12T00:14:34;102789.47;;;8.50;79.08
41596;BME280;27283;52.504;13.358;2022-11-12T00:17:07;102786.06;;;8.48;78.41
41596;BME280;27283;52.504;13.358;2022-11-12T00:19:45;102780.69;;;8.48;78.51
41596;BME280;27283;52.504;13.358;2022-11-12T00:22:18;102782.13;;;8.40;78.61
41596;BME280;27283;52.504;13.358;2022-11-12T00:24:54;102784.03;;;8.38;78.39
41596;BME280;27283;52.504;13.358;2022-11-12T00:27:26;102783.38;;;8.48;77.78
41596;BME280;27283;52.504;13.358;2022-11-12T00:30:03;102777.03;;;8.49;77.51
41596;BME280;27283;52.504;13.358;2022-11-12T00:32:36;102788.53;;;8.51;77.39
41596;BME280;27283;52.504;13.358;2022-11-12T00:35:09;102783.16;;;8.51;76.72
41596;BME280;27283;52.504;13.358;2022-11-12T00:37:42;102781.97;;;8.56;76.15
41596;BME280;27283;52.504;13.358;2022-11-12T00:40:18;102779.88;;;8.61;75.95
41596;BME280;27283;52.504;13.358;2022-11-12T00:42:52;102789.72;;;8.60;75.58
41596;BME280;27283;52.504;13.358;2022-11-12T00:45:27;102782.53;;;8.61;76.04
41596;BME280;27283;52.504;13.358;2022-11-12T00:47:59;102790.00;;;8.56;76.55
41596;BME280;27283;52.504;13.358;2022-11-12T00:50:32;102789.47;;;8.50;76.68
41596;BME280;27283;52.504;13.358;2022-11-12T00:53:04;102785.06;;;8.49;75.87
41596;BME280;27283;52.504;13.358;2022-11-12T00:55:39;102786.59;;;8.54;75.49
41596;BME280;27283;52.504;13.358;2022-11-12T00:58:13;102782.38;;;8.49;75.33
41596;BME280;27283;52.504;13.358;2022-11-12T01:00:48;102790.22;;;8.52;75.41
41596;BME280;27283;52.504;13.358;2022-11-12T01:03:21;102790.47;;;8.62;74.77
41596;BME280;27283;52.504;13.358;2022-11-12T01:05:53;102781.88;;;8.57;74.26
41596;BME280;27283;52.504;13.358;2022-11-12T01:08:29;102781.34;;;8.65;74.33
41596;BME280;27283;52.504;13.358;2022-11-12T01:11:06;102782.88;;;8.69;73.97
41596;BME280;27283;52.504;13.358;2022-11-12T01:13:41;102777.44;;;8.83;72.93
41596;BME280;27283;52.504;13.358;2022-11-12T01:16:18;102780.66;;;8.89;72.33
41596;BME280;27283;52.504;13.358;2022-11-12T01:18:52;102778.28;;;8.84;72.47
41596;BME280;27283;52.504;13.358;2022-11-12T01:21:27;102782.81;;;8.96;72.18
41596;BME280;27283;52.504;13.358;2022-11-12T01:24:00;102777.75;;;8.92;72.25
41596;BME280;27283;52.504;13.358;2022-11-12T01:26:32;102772.75;;;9.00;71.95
41596;BME280;27283;52.504;13.358;2022-11-12T01:29:06;102775.75;;;8.95;71.63
41596;BME280;27283;52.504;13.358;2022-11-12T01:31:41;102773.34;;;8.91;71.99
41596;BME280;27283;52.504;13.358;2022-11-12T01:34:13;102777.66;;;8.93;71.42
41596;BME280;27283;52.504;13.358;2022-11-12T01:36:46;102777.13;;;9.01;71.16
41596;BME280;27283;52.504;13.358;2022-11-12T01:39:18;102785.75;;;9.06;72.28
41596;BME280;27283;52.504;13.358;2022-11-12T01:41:50;102788.59;;;8.90;71.81
41596;BME280;27283;52.504;13.358;2022-11-12T01:44:24;102782.59;;;8.86;72.30
41596;BME280;27283;52.504;13.358;2022-11-12T01:47:08;102790.84;;;8.83;72.56
41596;BME280;27283;52.504;13.358;2022-11-12T01:49:49;102786.66;;;8.79;71.88
41596;BME280;27283;52.504;13.358;2022-11-12T01:52:28;102791.50;;;8.87;71.57
41596;BME280;27283;52.504;13.358;2022-11-12T01:55:05;102793.66;;;8.82;72.01
41596;BME280;27283;52.504;13.358;2022-11-12T01:57:40;102792.34;;;8.87;71.82
41596;BME280;27283;52.504;13.358;2022-11-12T02:00:15;102792.06;;;9.05;71.12
41596;BME280;27283;52.504;13.358;2022-11-12T02:02:54;102794.94;;;9.15;70.29
41596;BME280;27283;52.504;13.358;2022-11-12T02:05:28;102794.84;;;9.03;70.70
41596;BME280;27283;52.504;13.358;2022-11-12T02:08:01;102791.09;;;9.06;70.47
41596;BME280;27283;52.504;13.358;2022-11-12T02:10:34;102790.56;;;9.14;70.05
41596;BME280;27283;52.504;13.358;2022-11-12T02:13:07;102791.31;;;9.16;69.79
41596;BME280;27283;52.504;13.358;2022-11-12T02:15:51;102793.56;;;9.09;69.82
41596;BME280;27283;52.504;13.358;2022-11-12T05:42:08;102880.31;;;6.49;82.71
41596;BME280;27283;52.504;13.358;2022-11-12T05:45:11;102884.78;;;6.48;82.80
41596;BME280;27283;52.504;13.358;2022-11-12T05:47:47;102890.31;;;6.45;81.96
41596;BME280;27283;52.504;13.358;2022-11-12T05:50:22;102887.91;;;6.41;82.80
41596;BME280;27283;52.504;13.358;2022-11-12T05:53:07;102900.91;;;6.47;82.80
41596;BME280;27283;52.504;13.358;2022-11-12T05:55:41;102893.25;;;6.41;82.95
41596;BME280;27283;52.504;13.358;2022-11-12T05:58:15;102895.75;;;6.44;83.60
41596;BME280;27283;52.504;13.358;2022-11-12T06:00:47;102897.28;;;6.32;83.57
41596;BME280;27283;52.504;13.358;2022-11-12T06:03:18;102898.94;;;6.34;83.53
41596;BME280;27283;52.504;13.358;2022-11-12T06:05:50;102887.09;;;6.38;82.99
41596;BME280;27283;52.504;13.358;2022-11-12T06:08:22;102898.06;;;6.50;82.78
41596;BME280;27283;52.504;13.358;2022-11-12T06:10:54;102889.56;;;6.43;82.64
41596;BME280;27283;52.504;13.358;2022-11-12T06:13:29;102891.16;;;6.46;82.44
41596;BME280;27283;52.504;13.358;2022-11-12T06:16:01;102892.13;;;6.45;82.32
41596;BME280;27283;52.504;13.358;2022-11-12T06:18:32;102899.00;;;6.49;82.21
41596;BME280;27283;52.504;13.358;2022-11-12T06:21:06;102904.88;;;6.55;81.85
41596;BME280;27283;52.504;13.358;2022-11-12T06:23:53;102898.66;;;6.55;81.76
41596;BME280;27283;52.504;13.358;2022-11-12T06:26:27;102896.06;;;6.53;82.02
41596;BME280;27283;52.504;13.358;2022-11-12T06:29:01;102894.53;;;6.65;81.44
41596;BME280;27283;52.504;13.358;2022-11-12T06:31:33;102893.22;;;6.72;81.28
41596;BME280;27283;52.504;13.358;2022-11-12T06:34:04;102903.47;;;6.64;81.47
41596;BME280;27283;52.504;13.358;2022-11-12T06:36:36;102914.78;;;6.69;81.15
41596;BME280;27283;52.504;13.358;2022-11-12T06:39:09;102909.97;;;6.60;81.95
41596;BME280;27283;52.504;13.358;2022-11-12T06:41:41;102921.09;;;6.52;82.82
41596;BME280;27283;52.504;13.358;2022-11-12T06:44:15;102918.09;;;6.59;82.33
41596;BME280;27283;52.504;13.358;2022-11-12T06:46:50;102923.16;;;6.63;82.72
41596;BME280;27283;52.504;13.358;2022-11-12T06:49:21;102931.59;;;6.71;81.96
41596;BME280;27283;52.504;13.358;2022-11-12T06:51:53;102927.63;;;6.63;82.51
41596;BME280;27283;52.504;13.358;2022-11-12T06:54:55;102934.09;;;6.90;80.93
41596;BME280;27283;52.504;13.358;2022-11-12T06:57:30;102936.44;;;6.65;82.21
41596;BME280;27283;52.504;13.358;2022-11-12T07:00:08;102934.88;;;6.61;82.58
41596;BME280;27283;52.504;13.358;2022-11-12T07:02:41;102934.47;;;6.52;82.89
41596;BME280;27283;52.504;13.358;2022-11-12T07:05:12;102940.69;;;6.69;82.80
41596;BME280;27283;52.504;13.358;2022-11-12T07:07:44;102946.19;;;6.66;82.41
41596;BME280;27283;52.504;13.358;2022-11-12T07:10:16;102946.00;;;6.85;82.10
41596;BME280;27283;52.504;13.358;2022-11-12T07:12:48;102944.34;;;7.14;80.98
41596;BME280;27283;52.504;13.358;2022-11-12T07:15:23;102942.97;;;6.91;81.51
41596;BME280;27283;52.504;13.358;2022-11-12T07:17:55;102945.28;;;6.97;81.89
41596;BME280;27283;52.504;13.358;2022-11-12T07:20:26;102945.19;;;6.99;82.10
41596;BME280;27283;52.504;13.358;2022-11-12T07:22:59;102953.66;;;7.07;83.29
41596;BME280;27283;52.504;13.358;2022-11-12T07:25:31;102955.88;;;7.15;82.34
41596;BME280;27283;52.504;13.358;2022-11-12T07:28:03;102961.53;;;7.24;81.33
41596;BME280;27283;52.504;13.358;2022-11-12T07:30:37;102945.00;;;7.48;80.61
41596;BME280;27283;52.504;13.358;2022-11-12T07:33:09;102962.16;;;7.74;79.91
41596;BME280;27283;52.504;13.358;2022-11-12T07:35:41;102960.94;;;7.66;79.79
41596;BME280;27283;52.504;13.358;2022-11-12T07:38:13;102968.06;;;7.65;79.72
41596;BME280;27283;52.504;13.358;2022-11-12T07:40:44;102971.19;;;7.73;79.40
41596;BME280;27283;52.504;13.358;2022-11-12T07:43:16;102960.50;;;8.02;77.84
41596;BME280;27283;52.504;13.358;2022-11-12T07:45:56;102966.22;;;8.10;77.27
41596;BME280;27283;52.504;13.358;2022-11-12T07:48:37;102975.25;;;8.09;77.27
41596;BME280;27283;52.504;13.358;2022-11-12T07:51:12;102970.16;;;8.33;76.55
41596;BME280;27283;52.504;13.358;2022-11-12T07:53:46;102973.03;;;8.59;75.30
41596;BME280;27283;52.504;13.358;2022-11-12T07:56:26;102975.31;;;8.65;74.80
41596;BME280;27283;52.504;13.358;2022-11-12T07:58:58;102974.81;;;8.73;74.43
41596;BME280;27283;52.504;13.358;2022-11-12T08:01:33;102978.44;;;8.86;73.36
41596;BME280;27283;52.504;13.358;2022-11-12T08:04:07;102973.06;;;8.86;73.47
41596;BME280;27283;52.504;13.358;2022-11-12T08:06:39;102965.38;;;8.95;72.59
41596;BME280;27283;52.504;13.358;2022-11-12T08:09:12;102972.47;;;9.23;72.96
41596;BME280;27283;52.504;13.358;2022-11-12T08:11:43;102977.84;;;9.36;73.06
41596;BME280;27283;52.504;13.358;2022-11-12T08:14:15;102972.66;;;9.20;72.14
41596;BME280;27283;52.504;13.358;2022-11-12T08:16:49;102978.25;;;9.30;71.19
41596;BME280;27283;52.504;13.358;2022-11-12T08:19:21;102983.00;;;9.26;71.54
41596;BME280;27283;52.504;13.358;2022-11-12T08:21:53;102984.41;;;9.32;71.76
41596;BME280;27283;52.504;13.358;2022-11-12T08:24:25;102969.09;;;9.60;72.35
41596;BME280;27283;52.504;13.358;2022-11-12T08:26:57;102967.41;;;9.71;71.72
41596;BME280;27283;52.504;13.358;2022-11-12T08:29:29;102972.53;;;9.62;71.14
41596;BME280;27283;52.504;13.358;2022-11-12T08:32:03;102971.59;;;9.88;70.63
41596;BME280;27283;52.504;13.358;2022-11-12T08:34:35;102979.56;;;9.77;70.73
41596;BME280;27283;52.504;13.358;2022-11-12T08:37:08;102970.84;;;9.73;71.44
41596;BME280;27283;52.504;13.358;2022-11-12T08:39:41;102979.03;;;9.85;71.25
41596;BME280;27283;52.504;13.358;2022-11-12T08:42:12;102974.50;;;10.11;68.98
41596;BME280;27283;52.504;13.358;2022-11-12T08:44:45;102976.88;;;10.16;68.67
41596;BME280;27283;52.504;13.358;2022-11-12T08:47:19;102975.13;;;10.27;68.22
41596;BME280;27283;52.504;13.358;2022-11-12T08:49:51;102982.03;;;10.44;67.37
41596;BME280;27283;52.504;13.358;2022-11-12T08:52:22;102971.97;;;10.72;66.73
41596;BME280;27283;52.504;13.358;2022-11-12T08:54:54;102975.28;;;10.76;66.60
41596;BME280;27283;52.504;13.358;2022-11-12T08:57:39;102977.50;;;11.19;66.05
41596;BME280;27283;52.504;13.358;2022-11-12T09:00:13;102975.50;;;11.10;65.92
41596;BME280;27283;52.504;13.358;2022-11-12T09:02:47;102972.66;;;11.35;64.79
41596;BME280;27283;52.504;13.358;2022-11-12T09:05:20;102980.88;;;11.34;66.83
41596;BME280;27283;52.504;13.358;2022-11-12T09:07:56;102972.56;;;11.48;65.59
41596;BME280;27283;52.504;13.358;2022-11-12T09:10:28;102966.81;;;11.53;64.60
41596;BME280;27283;52.504;13.358;2022-11-12T09:13:00;102971.78;;;11.70;65.44
41596;BME280;27283;52.504;13.358;2022-11-12T09:15:33;102977.47;;;11.90;64.31
41596;BME280;27283;52.504;13.358;2022-11-12T09:18:12;102977.44;;;11.79;64.50
41596;BME280;27283;52.504;13.358;2022-11-12T09:20:44;102981.56;;;12.30;62.95
41596;BME280;27283;52.504;13.358;2022-11-12T09:23:16;102986.59;;;12.12;64.26
41596;BME280;27283;52.504;13.358;2022-11-12T09:25:48;102982.78;;;12.03;64.81
41596;BME280;27283;52.504;13.358;2022-11-12T09:28:20;102982.78;;;12.03;65.78
41596;BME280;27283;52.504;13.358;2022-11-12T09:30:53;102973.72;;;12.15;66.07
41596;BME280;27283;52.504;13.358;2022-11-12T09:33:31;102979.59;;;12.43;65.59
41596;BME280;27283;52.504;13.358;2022-11-12T09:36:03;102987.56;;;12.56;66.40
41596;BME280;27283;52.504;13.358;2022-11-12T09:38:35;102985.63;;;12.35;67.61
41596;BME280;27283;52.504;13.358;2022-11-12T09:41:15;102990.41;;;12.43;67.42
41596;BME280;27283;52.504;13.358;2022-11-12T09:43:50;102982.41;;;12.64;67.40
41596;BME280;27283;52.504;13.358;2022-11-12T09:46:37;102976.25;;;12.85;66.68
41596;BME280;27283;52.504;13.358;2022-11-12T09:49:16;102972.22;;;13.11;66.71
41596;BME280;27283;52.504;13.358;2022-11-12T09:51:51;102981.44;;;13.09;67.50
41596;BME280;27283;52.504;13.358;2022-11-12T09:54:26;102981.59;;;12.96;68.71
41596;BME280;27283;52.504;13.358;2022-11-12T09:56:58;102967.44;;;13.47;67.64
41596;BME280;27283;52.504;13.358;2022-11-12T09:59:32;102973.56;;;13.50;66.90
41596;BME280;27283;52.504;13.358;2022-11-12T10:02:18;102971.38;;;13.64;66.73
41596;BME280;27283;52.504;13.358;2022-11-12T10:05:05;102984.59;;;14.10;65.11
41596;BME280;27283;52.504;13.358;2022-11-12T10:07:48;102970.41;;;14.48;64.00
41596;BME280;27283;52.504;13.358;2022-11-12T10:10:33;102965.88;;;14.18;64.79
41596;BME280;27283;52.504;13.358;2022-11-12T10:13:21;102955.19;;;14.16;64.48
41596;BME280;27283;52.504;13.358;2022-11-12T10:16:07;102972.50;;;14.04;64.79
41596;BME280;27283;52.504;13.358;2022-11-12T10:19:15;102974.34;;;13.82;66.15
41596;BME280;27283;52.504;13.358;2022-11-12T10:21:59;102963.97;;;14.09;65.82
41596;BME280;27283;52.504;13.358;2022-11-12T10:24:35;102962.63;;;14.24;64.82
41596;BME280;27283;52.504;13.358;2022-11-12T10:27:14;102973.94;;;14.39;64.39
41596;BME280;27283;52.504;13.358;2022-11-12T10:29:52;102961.00;;;14.93;62.74
41596;BME280;27283;52.504;13.358;2022-11-12T10:32:26;102959.56;;;15.09;62.14
41596;BME280;27283;52.504;13.358;2022-11-12T10:34:59;102977.38;;;15.50;60.85
41596;BME280;27283;52.504;13.358;2022-11-12T10:37:40;102994.78;;;15.18;61.75
41596;BME280;27283;52.504;13.358;2022-11-12T10:40:31;102954.44;;;15.45;60.37
41596;BME280;27283;52.504;13.358;2022-11-12T10:43:04;102952.03;;;15.22;61.67
41596;BME280;27283;52.504;13.358;2022-11-12T10:45:36;102970.69;;;15.54;60.84
41596;BME280;27283;52.504;13.358;2022-11-12T10:48:21;102974.53;;;15.22;61.45
41596;BME280;27283;52.504;13.358;2022-11-12T10:50:57;102954.72;;;15.32;61.83
41596;BME280;27283;52.504;13.358;2022-11-12T10:53:51;102955.56;;;15.32;61.85
41596;BME280;27283;52.504;13.358;2022-11-12T10:56:28;102968.22;;;15.71;60.32
41596;BME280;27283;52.504;13.358;2022-11-12T10:59:14;102961.97;;;15.70;59.95
41596;BME280;27283;52.504;13.358;2022-11-12T11:01:54;102958.84;;;15.26;62.07
41596;BME280;27283;52.504;13.358;2022-11-12T11:04:31;102965.06;;;15.75;60.29
41596;BME280;27283;52.504;13.358;2022-11-12T11:07:05;102964.38;;;15.73;60.04
41596;BME280;27283;52.504;13.358;2022-11-12T11:09:59;102951.53;;;15.85;59.29
41596;BME280;27283;52.504;13.358;2022-11-12T11:12:33;102966.94;;;15.85;60.03
41596;BME280;27283;52.504;13.358;2022-11-12T11:15:45;102964.75;;;15.98;58.85
41596;BME280;27283;52.504;13.358;2022-11-12T11:18:28;102939.69;;;15.67;59.28
41596;BME280;27283;52.504;13.358;2022-11-12T11:21:08;102963.34;;;15.94;59.13
41596;BME280;27283;52.504;13.358;2022-11-12T11:23:51;102952.56;;;16.12;59.17
41596;BME280;27283;52.504;13.358;2022-11-12T11:26:34;102934.69;;;16.19;59.10
41596;BME280;27283;52.504;13.358;2022-11-12T11:29:23;102939.94;;;15.93;60.26
41596;BME280;27283;52.504;13.358;2022-11-12T11:32:05;102943.94;;;15.89;59.43
41596;BME280;27283;52.504;13.358;2022-11-12T11:34:46;102934.38;;;15.94;59.57
41596;BME280;27283;52.504;13.358;2022-11-12T11:37:26;102929.03;;;16.03;59.48
41596;BME280;27283;52.504;13.358;2022-11-12T11:40:04;102945.53;;;15.72;60.94
41596;BME280;27283;52.504;13.358;2022-11-12T11:42:53;102939.97;;;15.64;60.02
41596;BME280;27283;52.504;13.358;2022-11-12T11:45:41;102930.47;;;15.30;61.45
41596;BME280;27283;52.504;13.358;2022-11-12T11:48:26;102929.19;;;15.34;61.29
41596;BME280;27283;52.504;13.358;2022-11-12T11:51:07;102915.50;;;15.36;61.19
41596;BME280;27283;52.504;13.358;2022-11-12T11:54:01;102921.63;;;15.18;61.00
41596;BME280;27283;52.504;13.358;2022-11-12T11:56:41;102928.19;;;15.06;62.29
41596;BME280;27283;52.504;13.358;2022-11-12T11:59:24;102941.41;;;14.70;63.04
41596;BME280;27283;52.504;13.358;2022-11-12T12:02:15;102943.97;;;14.62;63.58
41596;BME280;27283;52.504;13.358;2022-11-12T12:04:56;102934.28;;;14.88;62.36
41596;BME280;27283;52.504;13.358;2022-11-12T12:07:39;102931.75;;;14.97;63.04
41596;BME280;27283;52.504;13.358;2022-11-12T12:10:23;102937.44;;;14.74;63.51
41596;BME280;27283;52.504;13.358;2022-11-12T12:13:22;102919.19;;;14.76;63.75
41596;BME280;27283;52.504;13.358;2022-11-12T12:16:24;102921.59;;;14.79;64.40
41596;BME280;27283;52.504;13.358;2022-11-12T12:19:28;102928.19;;;14.96;63.08
41596;BME280;27283;52.504;13.358;2022-11-12T12:22:08;102920.19;;;14.75;63.61
41596;BME280;27283;52.504;13.358;2022-11-12T12:24:46;102916.00;;;14.61;63.98
41596;BME280;27283;52.504;13.358;2022-11-12T12:27:21;102923.16;;;14.62;63.84
41596;BME280;27283;52.504;13.358;2022-11-12T12:29:57;102915.50;;;14.67;64.25
41596;BME280;27283;52.504;13.358;2022-11-12T12:32:37;102903.53;;;14.80;64.05
41596;BME280;27283;52.504;13.358;2022-11-12T12:35:15;102908.97;;;14.49;64.59
41596;BME280;27283;52.504;13.358;2022-11-12T12:38:00;102920.59;;;14.61;63.93
41596;BME280;27283;52.504;13.358;2022-11-12T12:40:39;102916.47;;;14.76;63.48
41596;BME280;27283;52.504;13.358;2022-11-12T12:43:20;102906.13;;;14.50;63.93
41596;BME280;27283;52.504;13.358;2022-11-12T12:45:56;102910.94;;;14.37;64.72
41596;BME280;27283;52.504;13.358;2022-11-12T12:48:34;102906.63;;;14.25;65.20
41596;BME280;27283;52.504;13.358;2022-11-12T12:51:09;102897.34;;;14.17;65.27
41596;BME280;27283;52.504;13.358;2022-11-12T12:53:41;102893.56;;;14.30;64.88
41596;BME280;27283;52.504;13.358;2022-11-12T12:56:44;102884.16;;;14.24;64.76
41596;BME280;27283;52.504;13.358;2022-11-12T12:59:19;102878.19;;;14.40;64.52
41596;BME280;27283;52.504;13.358;2022-11-12T13:02:01;102876.03;;;14.34;64.51
41596;BME280;27283;52.504;13.358;2022-11-12T13:04:52;102875.38;;;14.51;64.04
41596;BME280;27283;52.504;13.358;2022-11-12T13:07:39;102873.66;;;14.41;65.00
41596;BME280;27283;52.504;13.358;2022-11-12T13:13:32;102873.22;;;14.55;64.13
41596;BME280;27283;52.504;13.358;2022-11-12T13:16:05;102876.56;;;14.68;63.56
41596;BME280;27283;52.504;13.358;2022-11-12T13:18:59;102868.53;;;14.47;64.76
41596;BME280;27283;52.504;13.358;2022-11-12T13:21:34;102873.31;;;14.24;65.51
41596;BME280;27283;52.504;13.358;2022-11-12T13:24:08;102870.72;;;14.13;66.17
41596;BME280;27283;52.504;13.358;2022-11-12T13:26:50;102879.63;;;14.34;65.30
41596;BME280;27283;52.504;13.358;2022-11-12T13:29:38;102876.63;;;14.38;65.36
41596;BME280;27283;52.504;13.358;2022-11-12T13:32:29;102876.72;;;14.77;64.65
41596;BME280;27283;52.504;13.358;2022-11-12T13:35:20;102876.59;;;14.28;65.50
41596;BME280;27283;52.504;13.358;2022-11-12T13:37:57;102887.41;;;14.28;66.05
41596;BME280;27283;52.504;13.358;2022-11-12T13:40:37;102877.34;;;14.30;66.04
41596;BME280;27283;52.504;13.358;2022-11-12T13:43:16;102877.88;;;14.24;66.44
41596;BME280;27283;52.504;13.358;2022-11-12T13:45:50;102877.91;;;14.33;65.89
41596;BME280;27283;52.504;13.358;2022-11-12T13:48:27;102873.34;;;14.34;66.04
41596;BME280;27283;52.504;13.358;2022-11-12T13:51:14;102883.16;;;14.25;65.93
41596;BME280;27283;52.504;13.358;2022-11-12T13:53:49;102880.53;;;14.14;66.92
41596;BME280;27283;52.504;13.358;2022-11-12T13:56:27;102877.44;;;14.18;66.46
41596;BME280;27283;52.504;13.358;2022-11-12T13:59:09;102871.59;;;14.13;66.29
41596;BME280;27283;52.504;13.358;2022-11-12T14:01:45;102879.44;;;14.16;66.56
41596;BME280;27283;52.504;13.358;2022-11-12T14:04:19;102880.13;;;14.18;66.28
41596;BME280;27283;52.504;13.358;2022-11-12T14:06:59;102878.19;;;14.40;66.65
41596;BME280;27283;52.504;13.358;2022-11-12T14:09:54;102882.84;;;14.18;66.55
41596;BME280;27283;52.504;13.358;2022-11-12T14:15:55;102878.25;;;14.09;66.87
41596;BME280;27283;52.504;13.358;2022-11-12T14:18:41;102877.88;;;14.24;66.35
41596;BME280;27283;52.504;13.358;2022-11-12T14:21:17;102881.66;;;14.02;66.91
41596;BME280;27283;52.504;13.358;2022-11-12T14:23:51;102870.84;;;14.02;66.92
41596;BME280;27283;52.504;13.358;2022-11-12T14:26:37;102871.06;;;13.89;67.49
41596;BME280;27283;52.504;13.358;2022-11-12T14:29:15;102871.06;;;13.89;67.22
41596;BME280;27283;52.504;13.358;2022-11-12T14:31:59;102868.19;;;13.80;67.42
41596;BME280;27283;52.504;13.358;2022-11-12T14:34:33;102867.91;;;13.83;67.67
41596;BME280;27283;52.504;13.358;2022-11-12T14:37:22;102866.47;;;13.79;68.02
41596;BME280;27283;52.504;13.358;2022-11-12T14:40:14;102858.19;;;13.71;68.70
41596;BME280;27283;52.504;13.358;2022-11-12T14:42:50;102857.13;;;13.62;68.47
41596;BME280;27283;52.504;13.358;2022-11-12T14:45:23;102861.44;;;13.65;69.16
41596;BME280;27283;52.504;13.358;2022-11-12T14:48:02;102858.63;;;13.45;69.77
41596;BME280;27283;52.504;13.358;2022-11-12T14:50:40;102855.78;;;13.47;69.58
41596;BME280;27283;52.504;13.358;2022-11-12T14:53:21;102855.44;;;13.40;69.98
41596;BME280;27283;52.504;13.358;2022-11-12T14:55:56;102856.44;;;13.39;70.49
41596;BME280;27283;52.504;13.358;2022-11-12T14:58:32;102859.31;;;13.26;70.34
41596;BME280;27283;52.504;13.358;2022-11-12T15:01:24;102856.06;;;13.11;71.48
41596;BME280;27283;52.504;13.358;2022-11-12T15:04:18;102852.69;;;12.98;71.24
41596;BME280;27283;52.504;13.358;2022-11-12T15:06:54;102852.63;;;12.88;72.33
41596;BME280;27283;52.504;13.358;2022-11-12T15:09:34;102845.09;;;12.71;72.93
41596;BME280;27283;52.504;13.358;2022-11-12T15:12:09;102853.13;;;12.50;74.08
41596;BME280;27283;52.504;13.358;2022-11-12T15:14:45;102853.56;;;12.77;72.76
41596;BME280;27283;52.504;13.358;2022-11-12T15:17:25;102854.72;;;12.64;73.85
41596;BME280;27283;52.504;13.358;2022-11-12T15:20:01;102859.47;;;12.71;73.00
41596;BME280;27283;52.504;13.358;2022-11-12T15:22:34;102852.81;;;12.75;72.99
41596;BME280;27283;52.504;13.358;2022-11-12T15:25:15;102854.91;;;12.72;72.97
41596;BME280;27283;52.504;13.358;2022-11-12T15:27:51;102855.06;;;12.59;73.36
41596;BME280;27283;52.504;13.358;2022-11-12T15:30:28;102861.47;;;12.47;74.22
41596;BME280;27283;52.504;13.358;2022-11-12T15:33:16;102861.03;;;12.30;74.66
41596;BME280;27283;52.504;13.358;2022-11-12T15:35:55;102859.13;;;12.10;74.71
41596;BME280;27283;52.504;13.358;2022-11-12T15:38:32;102850.63;;;11.92;76.10
41596;BME280;27283;52.504;13.358;2022-11-12T15:41:17;102857.88;;;12.02;75.69
41596;BME280;27283;52.504;13.358;2022-11-12T15:43:51;102859.59;;;11.81;76.76
41596;BME280;27283;52.504;13.358;2022-11-12T15:46:25;102856.16;;;11.67;77.46
41596;BME280;27283;52.504;13.358;2022-11-12T15:48:58;102851.50;;;11.58;77.43
41596;BME280;27283;52.504;13.358;2022-11-12T15:51:31;102860.75;;;11.43;78.39
41596;BME280;27283;52.504;13.358;2022-11-12T15:54:03;102856.97;;;11.34;78.86
41596;BME280;27283;52.504;13.358;2022-11-12T15:56:36;102866.72;;;11.24;79.48
41596;BME280;27283;52.504;13.358;2022-11-12T15:59:24;102865.25;;;11.20;79.60
41596;BME280;27283;52.504;13.358;2022-11-12T16:01:59;102873.09;;;11.23;79.53
41596;BME280;27283;52.504;13.358;2022-11-12T16:04:31;102863.84;;;11.03;80.83
41596;BME280;27283;52.504;13.358;2022-11-12T16:07:03;102873.13;;;10.98;81.14
41596;BME280;27283;52.504;13.358;2022-11-12T16:09:35;102862.44;;;10.86;81.76
41596;BME280;27283;52.504;13.358;2022-11-12T16:12:09;102867.41;;;10.79;81.80
41596;BME280;27283;52.504;13.358;2022-11-12T16:14:42;102861.75;;;10.71;82.70
41596;BME280;27283;52.504;13.358;2022-11-12T16:17:17;102872.44;;;10.59;83.15
41596;BME280;27283;52.504;13.358;2022-11-12T16:19:50;102866.34;;;10.57;83.16
41596;BME280;27283;52.504;13.358;2022-11-12T16:22:22;102864.09;;;10.51;83.95
41596;BME280;27283;52.504;13.358;2022-11-12T16:24:54;102864.91;;;10.40;84.29
41596;BME280;27283;52.504;13.358;2022-11-12T16:27:26;102870.81;;;10.33;84.35
41596;BME280;27283;52.504;13.358;2022-11-12T16:29:58;102868.78;;;10.23;84.38
41596;BME280;27283;52.504;13.358;2022-11-12T16:32:33;102862.88;;;10.18;84.80
41596;BME280;27283;52.504;13.358;2022-11-12T16:35:06;102864.72;;;10.18;84.80
41596;BME280;27283;52.504;13.358;2022-11-12T16:37:39;102869.44;;;10.14;85.16
41596;BME280;27283;52.504;13.358;2022-11-12T16:40:14;102878.84;;;10.08;85.55
41596;BME280;27283;52.504;13.358;2022-11-12T16:42:46;102878.84;;;9.96;85.85
41596;BME280;27283;52.504;13.358;2022-11-12T16:45:19;102872.84;;;9.92;85.96
41596;BME280;27283;52.504;13.358;2022-11-12T16:47:55;102874.75;;;9.90;86.30
41596;BME280;27283;52.504;13.358;2022-11-12T16:50:28;102874.34;;;9.83;86.62
41596;BME280;27283;52.504;13.358;2022-11-12T16:53:01;102872.41;;;9.85;86.73
41596;BME280;27283;52.504;13.358;2022-11-12T16:55:33;102871.00;;;9.80;86.69
41596;BME280;27283;52.504;13.358;2022-11-12T16:58:06;102874.47;;;9.82;86.31
41596;BME280;27283;52.504;13.358;2022-11-12T17:00:38;102872.31;;;9.74;87.35
41596;BME280;27283;52.504;13.358;2022-11-12T17:03:14;102870.38;;;9.76;87.12
41596;BME280;27283;52.504;13.358;2022-11-12T17:05:50;102864.78;;;9.79;87.61
41596;BME280;27283;52.504;13.358;2022-11-12T17:08:23;102863.25;;;9.75;86.95